Ripon, United Kingdom
Current Conditions -  °F | °C
As of 3:50 PM on Wednesday 26 Nov 2014 (Local Time) from EGXD Reporting Station
Drizzle Drizzle  
Wind Chill: 43°   Ceiling: 600
Heat Index: 46°   Visibility: 2.5mi
Dew Point: 45°   Wind: 7mph
Humidity: 93%   Direction: 80°E
Pressure: 29.85"   Gusts: NA
Location:  54.14°N, 1.52°W
Report Text: EGXD 261550Z 08006KT 4000 -DZ BKN006 OVC022 08/07 Q1011 YLO1 TEMPO FEW006 GRN
Loading
Personal Weather Stations






























Interactive Weather Map New forecast layout! Learn more

10-Day Weather Forecast

Advertisements
Track Severe Weather on mobile